sensor_id;sensor_type;location;lat;lon;timestamp;temperature;humidity
19403;DHT22;9837;48.888;8.998;2024-03-08T00:00:23;6.20;77.30
19403;DHT22;9837;48.888;8.998;2024-03-08T00:02:49;6.20;77.10
19403;DHT22;9837;48.888;8.998;2024-03-08T00:05:16;6.30;76.50
19403;DHT22;9837;48.888;8.998;2024-03-08T00:07:43;6.30;76.10
19403;DHT22;9837;48.888;8.998;2024-03-08T00:10:10;6.30;76.80
19403;DHT22;9837;48.888;8.998;2024-03-08T00:12:45;6.30;76.60
19403;DHT22;9837;48.888;8.998;2024-03-08T00:15:12;6.20;75.90
19403;DHT22;9837;48.888;8.998;2024-03-08T00:17:39;6.10;76.50
19403;DHT22;9837;48.888;8.998;2024-03-08T00:20:06;6.10;77.10
19403;DHT22;9837;48.888;8.998;2024-03-08T00:22:34;6.30;76.70
19403;DHT22;9837;48.888;8.998;2024-03-08T00:25:00;6.40;76.10
19403;DHT22;9837;48.888;8.998;2024-03-08T00:27:25;6.50;75.90
19403;DHT22;9837;48.888;8.998;2024-03-08T00:29:51;6.50;75.40
19403;DHT22;9837;48.888;8.998;2024-03-08T00:32:16;6.70;75.50
19403;DHT22;9837;48.888;8.998;2024-03-08T00:34:42;6.60;75.30
19403;DHT22;9837;48.888;8.998;2024-03-08T00:37:08;6.70;74.60
19403;DHT22;9837;48.888;8.998;2024-03-08T00:39:33;6.80;74.20
19403;DHT22;9837;48.888;8.998;2024-03-08T00:41:59;6.70;73.80
19403;DHT22;9837;48.888;8.998;2024-03-08T00:44:25;6.60;74.00
19403;DHT22;9837;48.888;8.998;2024-03-08T00:46:50;6.60;74.70
19403;DHT22;9837;48.888;8.998;2024-03-08T00:49:16;6.50;74.50
19403;DHT22;9837;48.888;8.998;2024-03-08T00:51:42;6.50;75.20
19403;DHT22;9837;48.888;8.998;2024-03-08T00:54:08;6.30;74.60
19403;DHT22;9837;48.888;8.998;2024-03-08T00:56:34;6.30;75.30
19403;DHT22;9837;48.888;8.998;2024-03-08T00:59:01;6.40;74.80
19403;DHT22;9837;48.888;8.998;2024-03-08T01:01:28;6.30;75.40
19403;DHT22;9837;48.888;8.998;2024-03-08T01:03:53;6.40;75.10
19403;DHT22;9837;48.888;8.998;2024-03-08T01:06:19;6.50;74.90
19403;DHT22;9837;48.888;8.998;2024-03-08T01:08:45;6.60;74.50
19403;DHT22;9837;48.888;8.998;2024-03-08T01:11:12;6.50;74.40
19403;DHT22;9837;48.888;8.998;2024-03-08T01:13:38;6.30;74.30
19403;DHT22;9837;48.888;8.998;2024-03-08T01:16:04;6.20;75.00
19403;DHT22;9837;48.888;8.998;2024-03-08T01:18:29;6.20;75.40
19403;DHT22;9837;48.888;8.998;2024-03-08T01:20:55;6.10;75.60
19403;DHT22;9837;48.888;8.998;2024-03-08T01:23:21;6.10;75.80
19403;DHT22;9837;48.888;8.998;2024-03-08T01:25:46;6.30;75.30
19403;DHT22;9837;48.888;8.998;2024-03-08T01:28:12;6.40;74.60
19403;DHT22;9837;48.888;8.998;2024-03-08T01:30:38;6.20;74.10
19403;DHT22;9837;48.888;8.998;2024-03-08T01:33:04;6.20;74.80
19403;DHT22;9837;48.888;8.998;2024-03-08T01:37:56;6.20;74.10
19403;DHT22;9837;48.888;8.998;2024-03-08T01:40:21;6.20;74.80
19403;DHT22;9837;48.888;8.998;2024-03-08T01:42:47;6.10;74.20
19403;DHT22;9837;48.888;8.998;2024-03-08T01:45:13;6.10;74.60
19403;DHT22;9837;48.888;8.998;2024-03-08T01:47:39;6.10;75.30
19403;DHT22;9837;48.888;8.998;2024-03-08T01:50:04;6.10;75.30
19403;DHT22;9837;48.888;8.998;2024-03-08T01:52:34;6.10;75.30
19403;DHT22;9837;48.888;8.998;2024-03-08T01:55:02;6.10;75.10
19403;DHT22;9837;48.888;8.998;2024-03-08T01:57:29;6.10;75.20
19403;DHT22;9837;48.888;8.998;2024-03-08T01:59:56;6.20;74.90
19403;DHT22;9837;48.888;8.998;2024-03-08T02:02:22;6.20;74.50
19403;DHT22;9837;48.888;8.998;2024-03-08T02:04:48;6.20;74.60
19403;DHT22;9837;48.888;8.998;2024-03-08T02:07:14;6.40;75.50
19403;DHT22;9837;48.888;8.998;2024-03-08T02:09:39;6.00;75.20
19403;DHT22;9837;48.888;8.998;2024-03-08T02:12:05;6.00;74.40
19403;DHT22;9837;48.888;8.998;2024-03-08T02:14:32;6.00;75.00
19403;DHT22;9837;48.888;8.998;2024-03-08T02:17:01;6.00;75.00
19403;DHT22;9837;48.888;8.998;2024-03-08T02:19:26;6.00;75.10
19403;DHT22;9837;48.888;8.998;2024-03-08T02:21:52;6.20;75.50
19403;DHT22;9837;48.888;8.998;2024-03-08T02:24:18;5.60;75.70
19403;DHT22;9837;48.888;8.998;2024-03-08T02:26:43;5.60;76.40
19403;DHT22;9837;48.888;8.998;2024-03-08T02:29:09;5.70;75.60
19403;DHT22;9837;48.888;8.998;2024-03-08T02:31:35;5.60;76.20
19403;DHT22;9837;48.888;8.998;2024-03-08T02:34:00;5.70;75.30
19403;DHT22;9837;48.888;8.998;2024-03-08T02:36:25;5.80;76.00
19403;DHT22;9837;48.888;8.998;2024-03-08T02:38:51;5.70;75.80
19403;DHT22;9837;48.888;8.998;2024-03-08T02:41:17;5.60;75.50
19403;DHT22;9837;48.888;8.998;2024-03-08T02:43:42;5.50;75.50
19403;DHT22;9837;48.888;8.998;2024-03-08T02:46:09;5.90;76.50
19403;DHT22;9837;48.888;8.998;2024-03-08T02:48:35;5.40;76.50
19403;DHT22;9837;48.888;8.998;2024-03-08T02:51:00;5.80;77.30
19403;DHT22;9837;48.888;8.998;2024-03-08T02:53:27;5.30;77.10
19403;DHT22;9837;48.888;8.998;2024-03-08T02:55:53;5.30;77.00
19403;DHT22;9837;48.888;8.998;2024-03-08T02:58:18;5.20;76.90
19403;DHT22;9837;48.888;8.998;2024-03-08T03:00:44;5.20;77.30
19403;DHT22;9837;48.888;8.998;2024-03-08T03:03:09;5.30;77.20
19403;DHT22;9837;48.888;8.998;2024-03-08T03:05:35;5.30;76.70
19403;DHT22;9837;48.888;8.998;2024-03-08T03:08:01;5.20;76.90
19403;DHT22;9837;48.888;8.998;2024-03-08T03:10:26;5.00;76.80
19403;DHT22;9837;48.888;8.998;2024-03-08T03:12:52;5.00;77.00
19403;DHT22;9837;48.888;8.998;2024-03-08T03:15:18;5.00;77.70
19403;DHT22;9837;48.888;8.998;2024-03-08T03:17:50;5.20;77.80
19403;DHT22;9837;48.888;8.998;2024-03-08T03:20:19;4.90;78.10
19403;DHT22;9837;48.888;8.998;2024-03-08T03:22:51;4.90;77.90
19403;DHT22;9837;48.888;8.998;2024-03-08T03:25:20;4.80;77.90
19403;DHT22;9837;48.888;8.998;2024-03-08T03:27:50;4.90;77.20
19403;DHT22;9837;48.888;8.998;2024-03-08T03:30:16;4.80;77.90
19403;DHT22;9837;48.888;8.998;2024-03-08T03:32:49;4.80;77.90
19403;DHT22;9837;48.888;8.998;2024-03-08T03:35:17;4.70;77.40
19403;DHT22;9837;48.888;8.998;2024-03-08T03:37:43;4.70;77.60
19403;DHT22;9837;48.888;8.998;2024-03-08T03:40:16;5.00;78.50
19403;DHT22;9837;48.888;8.998;2024-03-08T03:42:44;4.80;78.10
19403;DHT22;9837;48.888;8.998;2024-03-08T03:45:11;5.20;77.90
19403;DHT22;9837;48.888;8.998;2024-03-08T03:47:36;5.00;77.40
19403;DHT22;9837;48.888;8.998;2024-03-08T03:50:04;4.80;77.40
19403;DHT22;9837;48.888;8.998;2024-03-08T03:52:30;4.80;77.70
19403;DHT22;9837;48.888;8.998;2024-03-08T03:54:55;4.70;78.10
19403;DHT22;9837;48.888;8.998;2024-03-08T03:57:22;4.80;77.80
19403;DHT22;9837;48.888;8.998;2024-03-08T03:59:48;4.90;77.30
19403;DHT22;9837;48.888;8.998;2024-03-08T04:02:14;4.90;77.10
19403;DHT22;9837;48.888;8.998;2024-03-08T04:04:40;4.70;76.90
19403;DHT22;9837;48.888;8.998;2024-03-08T04:07:05;4.70;77.10
19403;DHT22;9837;48.888;8.998;2024-03-08T04:09:31;4.70;77.80
19403;DHT22;9837;48.888;8.998;2024-03-08T04:11:57;4.70;77.80
19403;DHT22;9837;48.888;8.998;2024-03-08T04:14:23;4.90;76.20
19403;DHT22;9837;48.888;8.998;2024-03-08T04:16:49;4.90;75.90
19403;DHT22;9837;48.888;8.998;2024-03-08T04:19:14;5.00;75.60
19403;DHT22;9837;48.888;8.998;2024-03-08T04:21:40;5.00;76.30
19403;DHT22;9837;48.888;8.998;2024-03-08T04:24:05;4.70;76.30
19403;DHT22;9837;48.888;8.998;2024-03-08T04:26:31;4.70;77.00
19403;DHT22;9837;48.888;8.998;2024-03-08T04:28:57;4.50;77.80
19403;DHT22;9837;48.888;8.998;2024-03-08T04:31:22;4.50;77.90
19403;DHT22;9837;48.888;8.998;2024-03-08T04:33:48;4.60;77.10
19403;DHT22;9837;48.888;8.998;2024-03-08T04:36:13;4.70;76.70
19403;DHT22;9837;48.888;8.998;2024-03-08T04:38:40;4.70;77.50
19403;DHT22;9837;48.888;8.998;2024-03-08T04:41:06;4.70;77.10
19403;DHT22;9837;48.888;8.998;2024-03-08T04:43:32;4.80;76.90
19403;DHT22;9837;48.888;8.998;2024-03-08T04:45:58;5.00;76.90
19403;DHT22;9837;48.888;8.998;2024-03-08T04:48:23;4.90;77.20
19403;DHT22;9837;48.888;8.998;2024-03-08T04:50:52;4.80;76.30
19403;DHT22;9837;48.888;8.998;2024-03-08T04:53:19;5.50;77.00
19403;DHT22;9837;48.888;8.998;2024-03-08T04:55:44;4.70;76.70
19403;DHT22;9837;48.888;8.998;2024-03-08T04:58:10;4.90;75.30
19403;DHT22;9837;48.888;8.998;2024-03-08T05:00:35;5.00;75.10
19403;DHT22;9837;48.888;8.998;2024-03-08T05:03:01;4.90;75.10
19403;DHT22;9837;48.888;8.998;2024-03-08T05:05:26;4.90;75.20
19403;DHT22;9837;48.888;8.998;2024-03-08T05:07:54;4.90;75.80
19403;DHT22;9837;48.888;8.998;2024-03-08T05:10:20;4.70;76.00
19403;DHT22;9837;48.888;8.998;2024-03-08T05:12:45;4.60;76.60
19403;DHT22;9837;48.888;8.998;2024-03-08T05:15:11;4.80;76.70
19403;DHT22;9837;48.888;8.998;2024-03-08T05:17:36;4.50;76.90
19403;DHT22;9837;48.888;8.998;2024-03-08T05:20:02;4.50;77.40
19403;DHT22;9837;48.888;8.998;2024-03-08T05:22:29;4.60;77.30
19403;DHT22;9837;48.888;8.998;2024-03-08T05:24:54;4.60;77.40
19403;DHT22;9837;48.888;8.998;2024-03-08T05:27:20;4.70;76.70
19403;DHT22;9837;48.888;8.998;2024-03-08T05:29:46;4.80;76.40
19403;DHT22;9837;48.888;8.998;2024-03-08T05:32:11;4.70;75.90
19403;DHT22;9837;48.888;8.998;2024-03-08T05:34:37;5.00;76.90
19403;DHT22;9837;48.888;8.998;2024-03-08T05:37:03;4.70;75.70
19403;DHT22;9837;48.888;8.998;2024-03-08T05:39:28;4.70;76.40
19403;DHT22;9837;48.888;8.998;2024-03-08T05:41:55;4.80;76.40
19403;DHT22;9837;48.888;8.998;2024-03-08T05:44:21;5.00;76.20
19403;DHT22;9837;48.888;8.998;2024-03-08T05:46:47;4.90;76.10
19403;DHT22;9837;48.888;8.998;2024-03-08T05:49:12;5.00;76.40
19403;DHT22;9837;48.888;8.998;2024-03-08T05:51:39;4.80;76.00
19403;DHT22;9837;48.888;8.998;2024-03-08T05:54:08;4.60;76.30
19403;DHT22;9837;48.888;8.998;2024-03-08T05:56:37;4.60;77.00
19403;DHT22;9837;48.888;8.998;2024-03-08T05:59:03;4.90;77.30
19403;DHT22;9837;48.888;8.998;2024-03-08T06:01:28;4.40;77.60
19403;DHT22;9837;48.888;8.998;2024-03-08T06:03:55;4.60;77.90
19403;DHT22;9837;48.888;8.998;2024-03-08T06:06:23;4.50;78.00
19403;DHT22;9837;48.888;8.998;2024-03-08T06:08:49;4.40;78.40
19403;DHT22;9837;48.888;8.998;2024-03-08T06:11:15;4.60;78.40
19403;DHT22;9837;48.888;8.998;2024-03-08T06:13:42;4.80;77.80
19403;DHT22;9837;48.888;8.998;2024-03-08T06:16:08;4.90;77.20
19403;DHT22;9837;48.888;8.998;2024-03-08T06:18:35;5.10;76.60
19403;DHT22;9837;48.888;8.998;2024-03-08T06:21:05;5.50;75.20
19403;DHT22;9837;48.888;8.998;2024-03-08T06:23:35;5.90;73.70
19403;DHT22;9837;48.888;8.998;2024-03-08T06:26:09;6.30;72.00
19403;DHT22;9837;48.888;8.998;2024-03-08T06:28:35;6.70;70.80
19403;DHT22;9837;48.888;8.998;2024-03-08T06:31:01;7.20;68.90
19403;DHT22;9837;48.888;8.998;2024-03-08T06:33:27;7.60;67.50
19403;DHT22;9837;48.888;8.998;2024-03-08T06:35:56;7.80;66.10
19403;DHT22;9837;48.888;8.998;2024-03-08T06:38:23;8.00;65.30
19403;DHT22;9837;48.888;8.998;2024-03-08T06:40:48;8.10;64.40
19403;DHT22;9837;48.888;8.998;2024-03-08T06:43:14;8.10;64.60
19403;DHT22;9837;48.888;8.998;2024-03-08T06:45:42;8.00;64.00
19403;DHT22;9837;48.888;8.998;2024-03-08T06:48:19;8.00;64.80
19403;DHT22;9837;48.888;8.998;2024-03-08T06:50:46;8.10;65.20
19403;DHT22;9837;48.888;8.998;2024-03-08T06:53:12;8.40;62.60
19403;DHT22;9837;48.888;8.998;2024-03-08T06:55:38;8.40;63.20
19403;DHT22;9837;48.888;8.998;2024-03-08T06:58:04;7.40;65.50
19403;DHT22;9837;48.888;8.998;2024-03-08T07:00:30;7.40;66.20
19403;DHT22;9837;48.888;8.998;2024-03-08T07:02:59;7.20;66.70
19403;DHT22;9837;48.888;8.998;2024-03-08T07:05:28;7.20;67.50
19403;DHT22;9837;48.888;8.998;2024-03-08T07:07:54;8.00;68.70
19403;DHT22;9837;48.888;8.998;2024-03-08T07:10:23;6.80;68.40
19403;DHT22;9837;48.888;8.998;2024-03-08T07:12:52;6.80;69.20
19403;DHT22;9837;48.888;8.998;2024-03-08T08:31:07;5.80;73.90
19403;DHT22;9837;48.888;8.998;2024-03-08T08:38:33;5.80;74.80
19403;DHT22;9837;48.888;8.998;2024-03-08T08:43:30;6.30;73.30
19403;DHT22;9837;48.888;8.998;2024-03-08T08:45:59;6.10;73.20
19403;DHT22;9837;48.888;8.998;2024-03-08T10:02:14;6.70;73.10
19403;DHT22;9837;48.888;8.998;2024-03-08T10:12:05;7.60;70.80
19403;DHT22;9837;48.888;8.998;2024-03-08T10:16:57;7.50;72.10
19403;DHT22;9837;48.888;8.998;2024-03-08T10:31:43;7.30;71.10
19403;DHT22;9837;48.888;8.998;2024-03-08T10:39:24;7.50;70.60
19403;DHT22;9837;48.888;8.998;2024-03-08T10:41:56;7.50;70.10
19403;DHT22;9837;48.888;8.998;2024-03-08T10:47:26;8.00;69.90
19403;DHT22;9837;48.888;8.998;2024-03-08T10:50:10;8.10;69.20
19403;DHT22;9837;48.888;8.998;2024-03-08T10:55:05;7.60;69.30
19403;DHT22;9837;48.888;8.998;2024-03-08T10:57:38;7.50;69.70
19403;DHT22;9837;48.888;8.998;2024-03-08T11:00:06;7.60;69.70
19403;DHT22;9837;48.888;8.998;2024-03-08T11:07:33;7.60;69.30
19403;DHT22;9837;48.888;8.998;2024-03-08T11:10:02;7.80;69.40
19403;DHT22;9837;48.888;8.998;2024-03-08T11:12:36;7.80;68.90
19403;DHT22;9837;48.888;8.998;2024-03-08T11:15:10;7.80;69.10
19403;DHT22;9837;48.888;8.998;2024-03-08T11:20:13;8.20;68.10
19403;DHT22;9837;48.888;8.998;2024-03-08T11:22:47;8.30;67.60
19403;DHT22;9837;48.888;8.998;2024-03-08T11:33:11;8.30;69.50
19403;DHT22;9837;48.888;8.998;2024-03-08T11:35:38;8.60;67.80
19403;DHT22;9837;48.888;8.998;2024-03-08T11:40:32;8.50;67.10
19403;DHT22;9837;48.888;8.998;2024-03-08T12:05:02;9.40;65.10
19403;DHT22;9837;48.888;8.998;2024-03-08T12:10:16;9.00;66.30
19403;DHT22;9837;48.888;8.998;2024-03-08T12:12:48;9.10;67.00
19403;DHT22;9837;48.888;8.998;2024-03-08T12:15:19;9.20;66.40
19403;DHT22;9837;48.888;8.998;2024-03-08T12:17:47;9.40;66.20
19403;DHT22;9837;48.888;8.998;2024-03-08T12:20:21;9.40;65.70
19403;DHT22;9837;48.888;8.998;2024-03-08T12:30:26;9.10;66.50
19403;DHT22;9837;48.888;8.998;2024-03-08T12:32:58;9.20;67.10
19403;DHT22;9837;48.888;8.998;2024-03-08T12:35:25;9.10;66.90
19403;DHT22;9837;48.888;8.998;2024-03-08T12:37:59;9.50;67.50
19403;DHT22;9837;48.888;8.998;2024-03-08T12:40:28;9.80;64.30
19403;DHT22;9837;48.888;8.998;2024-03-08T12:42:55;10.00;64.00
19403;DHT22;9837;48.888;8.998;2024-03-08T12:45:21;9.90;64.60
19403;DHT22;9837;48.888;8.998;2024-03-08T12:47:50;10.20;63.10
19403;DHT22;9837;48.888;8.998;2024-03-08T12:50:15;10.20;62.30
19403;DHT22;9837;48.888;8.998;2024-03-08T12:52:43;10.10;62.70
19403;DHT22;9837;48.888;8.998;2024-03-08T12:55:08;10.10;63.50
19403;DHT22;9837;48.888;8.998;2024-03-08T12:57:35;10.10;64.30
19403;DHT22;9837;48.888;8.998;2024-03-08T13:00:02;10.40;63.00
19403;DHT22;9837;48.888;8.998;2024-03-08T13:02:28;10.30;61.80
19403;DHT22;9837;48.888;8.998;2024-03-08T13:04:55;10.30;61.60
19403;DHT22;9837;48.888;8.998;2024-03-08T13:07:23;10.60;60.70
19403;DHT22;9837;48.888;8.998;2024-03-08T13:09:52;10.50;62.00
19403;DHT22;9837;48.888;8.998;2024-03-08T13:12:18;10.30;62.60
19403;DHT22;9837;48.888;8.998;2024-03-08T13:14:45;10.20;62.40
19403;DHT22;9837;48.888;8.998;2024-03-08T13:17:12;10.30;62.30
19403;DHT22;9837;48.888;8.998;2024-03-08T13:19:38;10.30;63.20
19403;DHT22;9837;48.888;8.998;2024-03-08T13:22:04;10.80;61.60
19403;DHT22;9837;48.888;8.998;2024-03-08T13:29:22;11.30;59.50
19403;DHT22;9837;48.888;8.998;2024-03-08T13:31:48;11.40;59.40
19403;DHT22;9837;48.888;8.998;2024-03-08T13:34:20;11.40;59.20
19403;DHT22;9837;48.888;8.998;2024-03-08T13:36:53;11.30;59.60
19403;DHT22;9837;48.888;8.998;2024-03-08T13:39:20;11.30;60.00
19403;DHT22;9837;48.888;8.998;2024-03-08T13:41:46;11.60;58.70
19403;DHT22;9837;48.888;8.998;2024-03-08T13:44:12;11.50;58.10
19403;DHT22;9837;48.888;8.998;2024-03-08T13:46:38;11.50;58.70
19403;DHT22;9837;48.888;8.998;2024-03-08T13:49:05;11.20;59.90
19403;DHT22;9837;48.888;8.998;2024-03-08T13:51:31;11.10;60.30
19403;DHT22;9837;48.888;8.998;2024-03-08T13:53:57;11.20;60.20
19403;DHT22;9837;48.888;8.998;2024-03-08T13:56:23;11.30;60.10
19403;DHT22;9837;48.888;8.998;2024-03-08T13:58:48;11.50;59.40
19403;DHT22;9837;48.888;8.998;2024-03-08T14:01:14;11.60;59.40
19403;DHT22;9837;48.888;8.998;2024-03-08T14:06:07;11.30;59.30
19403;DHT22;9837;48.888;8.998;2024-03-08T14:08:32;11.30;59.80
19403;DHT22;9837;48.888;8.998;2024-03-08T14:13:24;11.50;59.20
19403;DHT22;9837;48.888;8.998;2024-03-08T14:15:50;11.40;58.80
19403;DHT22;9837;48.888;8.998;2024-03-08T14:18:17;11.40;59.30
19403;DHT22;9837;48.888;8.998;2024-03-08T14:25:38;11.30;58.60
19403;DHT22;9837;48.888;8.998;2024-03-08T14:28:03;11.40;59.80
19403;DHT22;9837;48.888;8.998;2024-03-08T14:33:04;11.70;58.20
19403;DHT22;9837;48.888;8.998;2024-03-08T14:35:31;11.80;58.10
19403;DHT22;9837;48.888;8.998;2024-03-08T14:37:57;11.50;57.80
19403;DHT22;9837;48.888;8.998;2024-03-08T14:40:26;11.50;58.10
19403;DHT22;9837;48.888;8.998;2024-03-08T14:42:52;11.40;58.10
19403;DHT22;9837;48.888;8.998;2024-03-08T14:45:18;11.50;58.90
19403;DHT22;9837;48.888;8.998;2024-03-08T14:47:47;11.80;57.90
19403;DHT22;9837;48.888;8.998;2024-03-08T14:50:19;12.00;58.10
19403;DHT22;9837;48.888;8.998;2024-03-08T14:52:45;11.80;57.50
19403;DHT22;9837;48.888;8.998;2024-03-08T14:55:14;11.70;57.40
19403;DHT22;9837;48.888;8.998;2024-03-08T14:57:43;11.60;58.30
19403;DHT22;9837;48.888;8.998;2024-03-08T15:00:13;11.60;57.60
19403;DHT22;9837;48.888;8.998;2024-03-08T15:02:57;11.40;58.10
19403;DHT22;9837;48.888;8.998;2024-03-08T15:05:23;11.70;58.20
19403;DHT22;9837;48.888;8.998;2024-03-08T15:07:57;12.00;57.50
19403;DHT22;9837;48.888;8.998;2024-03-08T15:10:26;12.00;57.30
19403;DHT22;9837;48.888;8.998;2024-03-08T15:12:51;12.00;57.70
19403;DHT22;9837;48.888;8.998;2024-03-08T15:15:21;12.10;57.60
19403;DHT22;9837;48.888;8.998;2024-03-08T15:22:47;12.20;57.10
19403;DHT22;9837;48.888;8.998;2024-03-08T15:25:13;12.30;57.20
19403;DHT22;9837;48.888;8.998;2024-03-08T15:30:11;12.40;56.30
19403;DHT22;9837;48.888;8.998;2024-03-08T15:32:39;12.30;57.10
19403;DHT22;9837;48.888;8.998;2024-03-08T15:37:41;12.90;57.10
19403;DHT22;9837;48.888;8.998;2024-03-08T15:40:10;13.00;57.70
19403;DHT22;9837;48.888;8.998;2024-03-08T15:42:47;13.00;57.00
19403;DHT22;9837;48.888;8.998;2024-03-08T15:47:39;13.00;56.50
19403;DHT22;9837;48.888;8.998;2024-03-08T15:50:05;12.70;57.10
19403;DHT22;9837;48.888;8.998;2024-03-08T15:52:37;12.60;57.90
19403;DHT22;9837;48.888;8.998;2024-03-08T15:55:06;12.60;57.30
19403;DHT22;9837;48.888;8.998;2024-03-08T15:57:31;12.50;57.30
19403;DHT22;9837;48.888;8.998;2024-03-08T15:59:57;12.30;57.60
19403;DHT22;9837;48.888;8.998;2024-03-08T16:02:25;12.30;58.00
19403;DHT22;9837;48.888;8.998;2024-03-08T16:04:53;12.40;58.10
19403;DHT22;9837;48.888;8.998;2024-03-08T16:07:19;12.40;58.30
19403;DHT22;9837;48.888;8.998;2024-03-08T16:09:44;12.40;58.10
19403;DHT22;9837;48.888;8.998;2024-03-08T16:12:10;12.30;58.70
19403;DHT22;9837;48.888;8.998;2024-03-08T16:14:37;12.40;59.30
19403;DHT22;9837;48.888;8.998;2024-03-08T16:17:03;12.50;58.60
19403;DHT22;9837;48.888;8.998;2024-03-08T16:19:29;12.50;59.20
19403;DHT22;9837;48.888;8.998;2024-03-08T16:21:58;12.80;58.00
19403;DHT22;9837;48.888;8.998;2024-03-08T16:24:23;12.80;57.40
19403;DHT22;9837;48.888;8.998;2024-03-08T16:26:49;12.70;57.60
19403;DHT22;9837;48.888;8.998;2024-03-08T16:29:14;12.80;57.50
19403;DHT22;9837;48.888;8.998;2024-03-08T16:31:41;12.80;57.60
19403;DHT22;9837;48.888;8.998;2024-03-08T16:34:11;12.90;57.70
19403;DHT22;9837;48.888;8.998;2024-03-08T16:36:36;12.90;58.30
19403;DHT22;9837;48.888;8.998;2024-03-08T16:39:05;12.60;59.00
19403;DHT22;9837;48.888;8.998;2024-03-08T16:41:31;12.50;59.70
19403;DHT22;9837;48.888;8.998;2024-03-08T16:43:57;12.60;59.60
19403;DHT22;9837;48.888;8.998;2024-03-08T16:46:23;12.50;59.50
19403;DHT22;9837;48.888;8.998;2024-03-08T16:48:48;12.50;59.80
19403;DHT22;9837;48.888;8.998;2024-03-08T16:51:14;12.30;59.70
19403;DHT22;9837;48.888;8.998;2024-03-08T16:53:40;12.20;59.70
19403;DHT22;9837;48.888;8.998;2024-03-08T16:56:06;12.20;60.30
19403;DHT22;9837;48.888;8.998;2024-03-08T16:58:31;12.10;59.80
19403;DHT22;9837;48.888;8.998;2024-03-08T17:00:59;12.10;60.00
19403;DHT22;9837;48.888;8.998;2024-03-08T17:03:25;11.90;59.90
19403;DHT22;9837;48.888;8.998;2024-03-08T17:05:51;11.70;60.00
19403;DHT22;9837;48.888;8.998;2024-03-08T17:08:16;11.70;60.10
19403;DHT22;9837;48.888;8.998;2024-03-08T17:10:43;11.50;60.00
19403;DHT22;9837;48.888;8.998;2024-03-08T17:13:09;11.40;60.60
19403;DHT22;9837;48.888;8.998;2024-03-08T17:18:03;11.20;61.10
19403;DHT22;9837;48.888;8.998;2024-03-08T17:20:34;11.30;61.00
19403;DHT22;9837;48.888;8.998;2024-03-08T17:23:04;11.30;60.90
19403;DHT22;9837;48.888;8.998;2024-03-08T17:25:34;11.20;60.90
19403;DHT22;9837;48.888;8.998;2024-03-08T17:28:01;11.30;61.70
19403;DHT22;9837;48.888;8.998;2024-03-08T17:30:31;11.20;60.80
19403;DHT22;9837;48.888;8.998;2024-03-08T17:33:02;11.10;60.50
19403;DHT22;9837;48.888;8.998;2024-03-08T17:35:35;11.10;60.00
19403;DHT22;9837;48.888;8.998;2024-03-08T17:38:04;11.20;60.80
19403;DHT22;9837;48.888;8.998;2024-03-08T17:40:42;11.00;61.10
19403;DHT22;9837;48.888;8.998;2024-03-08T17:43:10;10.90;60.70
19403;DHT22;9837;48.888;8.998;2024-03-08T17:45:37;10.90;60.30
19403;DHT22;9837;48.888;8.998;2024-03-08T17:48:05;11.00;60.10
19403;DHT22;9837;48.888;8.998;2024-03-08T17:50:41;11.00;60.80
19403;DHT22;9837;48.888;8.998;2024-03-08T17:53:07;10.80;60.30
19403;DHT22;9837;48.888;8.998;2024-03-08T17:55:33;10.80;61.10
19403;DHT22;9837;48.888;8.998;2024-03-08T17:57:59;10.80;60.20
19403;DHT22;9837;48.888;8.998;2024-03-08T18:00:25;10.80;60.90
19403;DHT22;9837;48.888;8.998;2024-03-08T18:02:57;10.80;60.40
19403;DHT22;9837;48.888;8.998;2024-03-08T18:05:24;10.90;60.10
19403;DHT22;9837;48.888;8.998;2024-03-08T18:07:52;10.80;60.30
19403;DHT22;9837;48.888;8.998;2024-03-08T18:10:18;10.90;60.70
19403;DHT22;9837;48.888;8.998;2024-03-08T18:12:53;10.90;61.30
19403;DHT22;9837;48.888;8.998;2024-03-08T18:15:31;10.80;61.10
19403;DHT22;9837;48.888;8.998;2024-03-08T18:17:59;10.70;61.30
19403;DHT22;9837;48.888;8.998;2024-03-08T18:20:32;10.80;61.50
19403;DHT22;9837;48.888;8.998;2024-03-08T18:22:58;10.50;62.10
19403;DHT22;9837;48.888;8.998;2024-03-08T18:25:25;10.50;62.90
19403;DHT22;9837;48.888;8.998;2024-03-08T18:27:56;10.40;62.50
19403;DHT22;9837;48.888;8.998;2024-03-08T18:30:25;10.50;62.60
19403;DHT22;9837;48.888;8.998;2024-03-08T18:32:51;10.60;62.50
19403;DHT22;9837;48.888;8.998;2024-03-08T18:35:18;10.70;62.00
19403;DHT22;9837;48.888;8.998;2024-03-08T18:37:45;10.70;62.00
19403;DHT22;9837;48.888;8.998;2024-03-08T18:40:12;10.70;61.80
19403;DHT22;9837;48.888;8.998;2024-03-08T18:42:41;10.70;61.60
19403;DHT22;9837;48.888;8.998;2024-03-08T18:45:08;10.70;61.40
19403;DHT22;9837;48.888;8.998;2024-03-08T18:47:39;10.60;61.50
19403;DHT22;9837;48.888;8.998;2024-03-08T18:50:05;10.60;62.20
19403;DHT22;9837;48.888;8.998;2024-03-08T18:52:36;10.40;61.80
19403;DHT22;9837;48.888;8.998;2024-03-08T18:55:02;10.50;62.60
19403;DHT22;9837;48.888;8.998;2024-03-08T18:57:44;10.50;62.30
19403;DHT22;9837;48.888;8.998;2024-03-08T19:00:20;10.50;62.30
19403;DHT22;9837;48.888;8.998;2024-03-08T19:02:53;10.20;62.40
19403;DHT22;9837;48.888;8.998;2024-03-08T19:05:20;10.20;62.50
19403;DHT22;9837;48.888;8.998;2024-03-08T19:07:48;10.20;62.40
19403;DHT22;9837;48.888;8.998;2024-03-08T19:10:15;10.40;62.20
19403;DHT22;9837;48.888;8.998;2024-03-08T19:12:51;10.30;62.90
19403;DHT22;9837;48.888;8.998;2024-03-08T19:15:18;10.40;61.40
19403;DHT22;9837;48.888;8.998;2024-03-08T19:17:46;10.40;62.10
19403;DHT22;9837;48.888;8.998;2024-03-08T19:20:15;10.30;60.70
19403;DHT22;9837;48.888;8.998;2024-03-08T19:22:48;10.40;60.40
19403;DHT22;9837;48.888;8.998;2024-03-08T19:25:14;10.40;60.20
19403;DHT22;9837;48.888;8.998;2024-03-08T19:27:43;10.40;60.80
19403;DHT22;9837;48.888;8.998;2024-03-08T19:30:10;10.40;60.00
19403;DHT22;9837;48.888;8.998;2024-03-08T19:32:45;10.40;60.50
19403;DHT22;9837;48.888;8.998;2024-03-08T19:35:12;10.40;59.70
19403;DHT22;9837;48.888;8.998;2024-03-08T19:37:44;10.40;60.30
19403;DHT22;9837;48.888;8.998;2024-03-08T19:40:12;10.20;60.60
19403;DHT22;9837;48.888;8.998;2024-03-08T19:42:47;9.80;61.00
19403;DHT22;9837;48.888;8.998;2024-03-08T19:45:13;11.00;62.10
19403;DHT22;9837;48.888;8.998;2024-03-08T19:47:40;9.90;62.00
19403;DHT22;9837;48.888;8.998;2024-03-08T19:50:10;9.80;61.30
19403;DHT22;9837;48.888;8.998;2024-03-08T19:52:36;9.70;61.90
19403;DHT22;9837;48.888;8.998;2024-03-08T19:55:02;9.60;62.30
19403;DHT22;9837;48.888;8.998;2024-03-08T19:57:28;9.60;61.70
19403;DHT22;9837;48.888;8.998;2024-03-08T19:59:55;9.80;61.00
19403;DHT22;9837;48.888;8.998;2024-03-08T20:02:22;9.90;61.60
19403;DHT22;9837;48.888;8.998;2024-03-08T20:04:54;10.10;59.80
19403;DHT22;9837;48.888;8.998;2024-03-08T20:07:22;10.10;60.40
19403;DHT22;9837;48.888;8.998;2024-03-08T20:09:48;10.10;60.10
19403;DHT22;9837;48.888;8.998;2024-03-08T20:12:14;10.00;60.20
19403;DHT22;9837;48.888;8.998;2024-03-08T20:14:42;9.90;60.30
19403;DHT22;9837;48.888;8.998;2024-03-08T20:17:07;9.90;59.80
19403;DHT22;9837;48.888;8.998;2024-03-08T20:19:34;9.90;60.40
19403;DHT22;9837;48.888;8.998;2024-03-08T20:22:02;9.80;60.50
19403;DHT22;9837;48.888;8.998;2024-03-08T20:24:28;9.80;60.00
19403;DHT22;9837;48.888;8.998;2024-03-08T20:26:54;9.80;60.70
19403;DHT22;9837;48.888;8.998;2024-03-08T20:29:20;9.80;60.40